sensor_id;sensor_type;location;lat;lon;timestamp;pressure;altitude;pressure_sealevel;temperature;humidity
63901;BME280;50538;53.482;10.294;2022-09-09T00:04:24;100360.59;;;19.87;67.52
63901;BME280;50538;53.482;10.294;2022-09-09T00:14:34;100363.16;;;19.93;67.82
63901;BME280;50538;53.482;10.294;2022-09-09T00:24:46;100358.84;;;19.92;68.06
63901;BME280;50538;53.482;10.294;2022-09-09T00:55:56;100347.69;;;20.00;69.54
63901;BME280;50538;53.482;10.294;2022-09-09T01:16:17;100350.97;;;20.14;68.34
63901;BME280;50538;53.482;10.294;2022-09-09T01:36:46;100354.16;;;19.88;67.84
63901;BME280;50538;53.482;10.294;2022-09-09T01:46:48;100345.84;;;19.77;67.72
63901;BME280;50538;53.482;10.294;2022-09-09T02:07:41;100347.75;;;19.65;67.66
63901;BME280;50538;53.482;10.294;2022-09-09T02:17:46;100352.53;;;19.63;68.14
63901;BME280;50538;53.482;10.294;2022-09-09T02:27:53;100348.44;;;19.61;68.25
63901;BME280;50538;53.482;10.294;2022-09-09T02:37:56;100345.75;;;19.61;68.38
63901;BME280;50538;53.482;10.294;2022-09-09T02:58:13;100339.31;;;19.50;68.12
63901;BME280;50538;53.482;10.294;2022-09-09T03:08:17;100340.00;;;19.45;68.06
63901;BME280;50538;53.482;10.294;2022-09-09T03:18:20;100350.88;;;19.39;67.92
63901;BME280;50538;53.482;10.294;2022-09-09T03:28:21;100349.34;;;19.31;68.51
63901;BME280;50538;53.482;10.294;2022-09-09T03:38:25;100339.00;;;19.28;68.11
63901;BME280;50538;53.482;10.294;2022-09-09T03:48:29;100350.94;;;19.21;67.58
63901;BME280;50538;53.482;10.294;2022-09-09T03:58:29;100345.47;;;19.15;67.04
63901;BME280;50538;53.482;10.294;2022-09-09T04:08:33;100361.72;;;19.09;67.26
63901;BME280;50538;53.482;10.294;2022-09-09T04:18:35;100358.28;;;19.02;67.60
63901;BME280;50538;53.482;10.294;2022-09-09T04:28:36;100371.97;;;19.00;67.42
63901;BME280;50538;53.482;10.294;2022-09-09T04:38:37;100383.94;;;19.04;67.91
63901;BME280;50538;53.482;10.294;2022-09-09T04:48:37;100378.31;;;19.06;68.39
63901;BME280;50538;53.482;10.294;2022-09-09T04:58:38;100380.91;;;19.12;68.33
63901;BME280;50538;53.482;10.294;2022-09-09T05:08:40;100375.16;;;19.21;68.31
63901;BME280;50538;53.482;10.294;2022-09-09T05:18:41;100396.25;;;19.24;68.10
63901;BME280;50538;53.482;10.294;2022-09-09T05:28:46;100395.56;;;19.28;68.12
63901;BME280;50538;53.482;10.294;2022-09-09T05:38:47;100389.50;;;19.33;67.96
63901;BME280;50538;53.482;10.294;2022-09-09T05:48:49;100402.63;;;19.41;68.23
63901;BME280;50538;53.482;10.294;2022-09-09T05:58:52;100418.00;;;19.52;68.19
63901;BME280;50538;53.482;10.294;2022-09-09T06:08:55;100429.97;;;19.68;67.98
63901;BME280;50538;53.482;10.294;2022-09-09T06:18:58;100444.47;;;19.78;67.97
63901;BME280;50538;53.482;10.294;2022-09-09T06:29:00;100443.66;;;19.90;67.97
63901;BME280;50538;53.482;10.294;2022-09-09T06:39:02;100444.97;;;19.99;67.72
63901;BME280;50538;53.482;10.294;2022-09-09T06:49:03;100448.94;;;20.08;67.86
63901;BME280;50538;53.482;10.294;2022-09-09T06:59:05;100443.66;;;20.13;67.44
63901;BME280;50538;53.482;10.294;2022-09-09T07:09:13;100437.44;;;20.36;67.85
63901;BME280;50538;53.482;10.294;2022-09-09T07:19:15;100440.47;;;20.91;67.48
63901;BME280;50538;53.482;10.294;2022-09-09T07:29:15;100444.59;;;21.72;66.90
63901;BME280;50538;53.482;10.294;2022-09-09T07:39:15;100453.50;;;22.23;64.29
63901;BME280;50538;53.482;10.294;2022-09-09T07:49:17;100460.81;;;22.44;62.45
63901;BME280;50538;53.482;10.294;2022-09-09T07:59:18;100476.38;;;23.25;61.35
63901;BME280;50538;53.482;10.294;2022-09-09T08:09:19;100469.38;;;23.29;59.70
63901;BME280;50538;53.482;10.294;2022-09-09T08:19:38;100478.84;;;23.26;60.94
63901;BME280;50538;53.482;10.294;2022-09-09T08:29:45;100487.59;;;23.60;59.95
63901;BME280;50538;53.482;10.294;2022-09-09T08:39:45;100492.66;;;23.79;60.23
63901;BME280;50538;53.482;10.294;2022-09-09T09:00:36;100484.59;;;24.26;58.68
63901;BME280;50538;53.482;10.294;2022-09-09T09:11:04;100508.78;;;24.32;56.38
63901;BME280;50538;53.482;10.294;2022-09-09T09:21:08;100520.00;;;24.51;57.09
63901;BME280;50538;53.482;10.294;2022-09-09T09:31:12;100514.38;;;25.30;55.34
63901;BME280;50538;53.482;10.294;2022-09-09T09:41:13;100514.69;;;25.64;55.45
63901;BME280;50538;53.482;10.294;2022-09-09T09:51:16;100505.50;;;25.76;54.76
63901;BME280;50538;53.482;10.294;2022-09-09T10:01:24;100496.16;;;26.53;51.28
63901;BME280;50538;53.482;10.294;2022-09-09T10:11:49;100499.91;;;26.67;52.73
63901;BME280;50538;53.482;10.294;2022-09-09T10:22:27;100509.59;;;26.93;50.66
63901;BME280;50538;53.482;10.294;2022-09-09T10:42:30;100494.97;;;26.74;50.86
63901;BME280;50538;53.482;10.294;2022-09-09T10:52:40;100501.75;;;26.82;50.41
63901;BME280;50538;53.482;10.294;2022-09-09T11:02:43;100491.94;;;26.81;49.61
63901;BME280;50538;53.482;10.294;2022-09-09T11:12:45;100481.03;;;26.86;49.74
63901;BME280;50538;53.482;10.294;2022-09-09T11:23:00;100474.84;;;27.63;49.15
63901;BME280;50538;53.482;10.294;2022-09-09T11:43:46;100489.28;;;28.75;46.43
63901;BME280;50538;53.482;10.294;2022-09-09T12:04:06;100492.81;;;27.70;48.94
63901;BME280;50538;53.482;10.294;2022-09-09T12:24:48;100493.50;;;27.02;51.38
63901;BME280;50538;53.482;10.294;2022-09-09T12:34:59;100499.03;;;26.77;52.23
63901;BME280;50538;53.482;10.294;2022-09-09T12:45:03;100497.44;;;26.70;52.93
63901;BME280;50538;53.482;10.294;2022-09-09T12:55:21;100496.25;;;26.92;53.85
63901;BME280;50538;53.482;10.294;2022-09-09T13:05:27;100493.19;;;27.14;50.33
63901;BME280;50538;53.482;10.294;2022-09-09T13:15:29;100489.16;;;27.45;50.73
63901;BME280;50538;53.482;10.294;2022-09-09T13:25:29;100497.00;;;27.52;50.89
63901;BME280;50538;53.482;10.294;2022-09-09T13:35:31;100512.44;;;27.27;47.28
63901;BME280;50538;53.482;10.294;2022-09-09T13:45:32;100526.50;;;26.95;48.79
63901;BME280;50538;53.482;10.294;2022-09-09T13:55:36;100535.91;;;26.54;51.45
63901;BME280;50538;53.482;10.294;2022-09-09T14:05:37;100523.13;;;26.29;53.48
63901;BME280;50538;53.482;10.294;2022-09-09T14:15:38;100503.31;;;25.98;54.23
63901;BME280;50538;53.482;10.294;2022-09-09T14:25:45;100516.03;;;25.62;54.97
63901;BME280;50538;53.482;10.294;2022-09-09T14:35:46;100519.00;;;25.25;55.30
63901;BME280;50538;53.482;10.294;2022-09-09T14:45:47;100502.56;;;24.89;55.88
63901;BME280;50538;53.482;10.294;2022-09-09T14:55:48;100527.97;;;24.68;56.21
63901;BME280;50538;53.482;10.294;2022-09-09T15:05:49;100519.19;;;24.51;58.13
63901;BME280;50538;53.482;10.294;2022-09-09T15:15:49;100512.31;;;24.33;57.99
63901;BME280;50538;53.482;10.294;2022-09-09T15:25:52;100507.13;;;24.26;57.98
63901;BME280;50538;53.482;10.294;2022-09-09T15:35:55;100491.31;;;24.18;58.09
63901;BME280;50538;53.482;10.294;2022-09-09T15:46:02;100483.91;;;24.08;58.10
63901;BME280;50538;53.482;10.294;2022-09-09T15:56:08;100491.19;;;24.03;56.85
63901;BME280;50538;53.482;10.294;2022-09-09T16:06:09;100480.94;;;24.10;56.81
63901;BME280;50538;53.482;10.294;2022-09-09T16:16:11;100485.53;;;24.09;57.46
63901;BME280;50538;53.482;10.294;2022-09-09T16:26:14;100477.75;;;24.18;57.32
63901;BME280;50538;53.482;10.294;2022-09-09T16:36:17;100481.94;;;24.41;56.66
63901;BME280;50538;53.482;10.294;2022-09-09T16:46:19;100466.84;;;24.60;57.41
63901;BME280;50538;53.482;10.294;2022-09-09T16:56:30;100477.13;;;24.53;57.19
63901;BME280;50538;53.482;10.294;2022-09-09T17:06:34;100480.63;;;24.44;57.20
63901;BME280;50538;53.482;10.294;2022-09-09T17:16:35;100471.78;;;24.21;57.17
63901;BME280;50538;53.482;10.294;2022-09-09T17:26:35;100473.81;;;23.99;57.35
63901;BME280;50538;53.482;10.294;2022-09-09T17:36:38;100463.34;;;23.75;56.92
63901;BME280;50538;53.482;10.294;2022-09-09T17:46:45;100474.69;;;23.46;57.62
63901;BME280;50538;53.482;10.294;2022-09-09T17:56:47;100493.72;;;23.24;56.96
63901;BME280;50538;53.482;10.294;2022-09-09T18:06:50;100507.00;;;22.98;57.74
63901;BME280;50538;53.482;10.294;2022-09-09T18:16:55;100526.19;;;22.75;56.94
63901;BME280;50538;53.482;10.294;2022-09-09T18:27:07;100540.50;;;22.54;57.08
63901;BME280;50538;53.482;10.294;2022-09-09T18:37:10;100546.34;;;22.29;56.94
63901;BME280;50538;53.482;10.294;2022-09-09T18:47:11;100549.06;;;22.12;57.89
63901;BME280;50538;53.482;10.294;2022-09-09T18:57:17;100543.56;;;21.90;58.42
63901;BME280;50538;53.482;10.294;2022-09-09T19:07:22;100560.91;;;21.77;58.97
63901;BME280;50538;53.482;10.294;2022-09-09T19:17:23;100562.03;;;21.65;58.50
63901;BME280;50538;53.482;10.294;2022-09-09T19:27:25;100556.38;;;21.50;60.31
63901;BME280;50538;53.482;10.294;2022-09-09T19:37:57;100565.00;;;21.35;60.76
63901;BME280;50538;53.482;10.294;2022-09-09T19:48:32;100570.44;;;21.23;60.45
63901;BME280;50538;53.482;10.294;2022-09-09T19:58:48;100566.69;;;21.12;60.37
63901;BME280;50538;53.482;10.294;2022-09-09T20:09:17;100567.41;;;21.08;60.28
63901;BME280;50538;53.482;10.294;2022-09-09T20:19:22;100585.81;;;20.99;60.85
63901;BME280;50538;53.482;10.294;2022-09-09T20:29:44;100592.91;;;20.89;61.22
63901;BME280;50538;53.482;10.294;2022-09-09T20:39:52;100593.38;;;20.86;60.75
63901;BME280;50538;53.482;10.294;2022-09-09T20:50:14;100585.66;;;20.77;61.79
63901;BME280;50538;53.482;10.294;2022-09-09T21:10:52;100623.66;;;20.53;64.75
63901;BME280;50538;53.482;10.294;2022-09-09T21:21:18;100645.69;;;20.26;67.30
63901;BME280;50538;53.482;10.294;2022-09-09T22:01:42;100614.75;;;20.64;66.63
63901;BME280;50538;53.482;10.294;2022-09-09T22:12:25;100595.16;;;20.68;66.38
63901;BME280;50538;53.482;10.294;2022-09-09T22:22:40;100593.16;;;20.64;66.17
63901;BME280;50538;53.482;10.294;2022-09-09T22:33:04;100581.31;;;20.65;65.31
63901;BME280;50538;53.482;10.294;2022-09-09T22:43:25;100588.34;;;20.66;65.54
63901;BME280;50538;53.482;10.294;2022-09-09T22:53:49;100588.69;;;20.58;64.85
63901;BME280;50538;53.482;10.294;2022-09-09T23:04:30;100580.97;;;20.61;64.18
63901;BME280;50538;53.482;10.294;2022-09-09T23:15:06;100576.84;;;20.59;64.10
63901;BME280;50538;53.482;10.294;2022-09-09T23:25:24;100585.19;;;20.57;63.82
63901;BME280;50538;53.482;10.294;2022-09-09T23:35:41;100577.91;;;20.58;63.45
63901;BME280;50538;53.482;10.294;2022-09-09T23:46:12;100575.56;;;20.49;63.46
63901;BME280;50538;53.482;10.294;2022-09-09T23:56:36;100579.78;;;20.45;63.42
